Larimers Corner, Washington
Current Conditions -  °F | °C
As of 10:53 PM on Thursday 27 Nov 2014 (Local Time) from KPAE Reporting Station
Overcast Overcast  
Wind Chill: 53°   Ceiling: 2800
Heat Index: 53°   Visibility: 10mi
Dew Point: 49°   Wind: 23mph
Humidity: 86%   Direction: 190°S
Pressure: 29.67"   Gusts: NA
Location:  47.9468°N, 122.012°W
Report Text: KPAE 280653Z 19020KT 10SM FEW016 BKN028 OVC045 12/09 A2967 RMK AO2 PK WND 18032/0621 RAE29 SLP048 P0000 T01170094
Loading
Personal Weather Stations






























Interactive Weather Map New forecast layout! Learn more

10-Day Weather Forecast

Advertisements
Track Severe Weather on mobile